sensor_id;sensor_type;location;lat;lon;timestamp;P1;durP1;ratioP1;P2;durP2;ratioP2
61317;SDS011;47201;40.428;-8.436;2022-12-01T00:01:35;12.20;;;2.60;;
61317;SDS011;47201;40.428;-8.436;2022-12-01T00:03:36;2.55;;;2.42;;
61317;SDS011;47201;40.428;-8.436;2022-12-01T00:05:38;4.78;;;3.53;;
61317;SDS011;47201;40.428;-8.436;2022-12-01T00:07:39;1.98;;;1.88;;
61317;SDS011;47201;40.428;-8.436;2022-12-01T00:09:40;2.63;;;1.95;;
61317;SDS011;47201;40.428;-8.436;2022-12-01T00:11:59;2.63;;;2.05;;
61317;SDS011;47201;40.428;-8.436;2022-12-01T00:13:59;2.95;;;2.28;;
61317;SDS011;47201;40.428;-8.436;2022-12-01T00:18:11;2.43;;;2.23;;
61317;SDS011;47201;40.428;-8.436;2022-12-01T00:20:13;2.08;;;1.98;;
61317;SDS011;47201;40.428;-8.436;2022-12-01T00:22:14;5.45;;;1.80;;
61317;SDS011;47201;40.428;-8.436;2022-12-01T00:24:15;4.25;;;1.98;;
61317;SDS011;47201;40.428;-8.436;2022-12-01T00:26:16;4.70;;;2.15;;
61317;SDS011;47201;40.428;-8.436;2022-12-01T00:28:20;2.20;;;2.03;;
61317;SDS011;47201;40.428;-8.436;2022-12-01T00:30:21;2.30;;;2.20;;
61317;SDS011;47201;40.428;-8.436;2022-12-01T00:32:22;2.00;;;1.90;;
61317;SDS011;47201;40.428;-8.436;2022-12-01T00:34:23;2.15;;;2.05;;
61317;SDS011;47201;40.428;-8.436;2022-12-01T00:36:24;2.13;;;1.95;;
61317;SDS011;47201;40.428;-8.436;2022-12-01T00:38:25;2.25;;;2.05;;
61317;SDS011;47201;40.428;-8.436;2022-12-01T00:42:27;3.87;;;2.40;;
61317;SDS011;47201;40.428;-8.436;2022-12-01T00:44:27;8.05;;;2.65;;
61317;SDS011;47201;40.428;-8.436;2022-12-01T00:46:29;2.42;;;2.22;;
61317;SDS011;47201;40.428;-8.436;2022-12-01T00:48:30;2.13;;;1.92;;
61317;SDS011;47201;40.428;-8.436;2022-12-01T00:50:31;3.20;;;2.40;;
61317;SDS011;47201;40.428;-8.436;2022-12-01T00:52:32;3.10;;;2.38;;
61317;SDS011;47201;40.428;-8.436;2022-12-01T00:54:32;2.97;;;1.50;;
61317;SDS011;47201;40.428;-8.436;2022-12-01T00:56:33;1.60;;;1.50;;
61317;SDS011;47201;40.428;-8.436;2022-12-01T00:58:34;1.70;;;1.60;;
61317;SDS011;47201;40.428;-8.436;2022-12-01T01:00:35;2.17;;;1.70;;
61317;SDS011;47201;40.428;-8.436;2022-12-01T01:02:39;2.30;;;1.70;;
61317;SDS011;47201;40.428;-8.436;2022-12-01T01:04:40;1.80;;;1.70;;
61317;SDS011;47201;40.428;-8.436;2022-12-01T01:06:40;1.70;;;1.30;;
61317;SDS011;47201;40.428;-8.436;2022-12-01T01:08:44;1.23;;;1.20;;
61317;SDS011;47201;40.428;-8.436;2022-12-01T01:10:46;1.30;;;1.30;;
61317;SDS011;47201;40.428;-8.436;2022-12-01T01:12:47;6.28;;;1.42;;
61317;SDS011;47201;40.428;-8.436;2022-12-01T01:14:51;3.17;;;1.88;;
61317;SDS011;47201;40.428;-8.436;2022-12-01T01:16:51;2.83;;;1.40;;
61317;SDS011;47201;40.428;-8.436;2022-12-01T01:20:58;1.35;;;1.25;;
61317;SDS011;47201;40.428;-8.436;2022-12-01T01:23:02;2.35;;;1.40;;
61317;SDS011;47201;40.428;-8.436;2022-12-01T01:25:02;1.30;;;1.20;;
61317;SDS011;47201;40.428;-8.436;2022-12-01T01:27:04;5.13;;;1.45;;
61317;SDS011;47201;40.428;-8.436;2022-12-01T01:29:05;1.20;;;1.20;;
61317;SDS011;47201;40.428;-8.436;2022-12-01T01:31:10;2.17;;;1.45;;
61317;SDS011;47201;40.428;-8.436;2022-12-01T01:33:12;1.83;;;1.20;;
61317;SDS011;47201;40.428;-8.436;2022-12-01T01:35:13;4.35;;;1.40;;
61317;SDS011;47201;40.428;-8.436;2022-12-01T01:37:14;3.15;;;1.33;;
61317;SDS011;47201;40.428;-8.436;2022-12-01T01:41:16;5.13;;;1.47;;
61317;SDS011;47201;40.428;-8.436;2022-12-01T01:43:36;1.70;;;1.60;;
61317;SDS011;47201;40.428;-8.436;2022-12-01T01:45:38;1.27;;;1.20;;
61317;SDS011;47201;40.428;-8.436;2022-12-01T01:47:38;3.58;;;1.25;;
61317;SDS011;47201;40.428;-8.436;2022-12-01T01:49:40;2.10;;;1.15;;
61317;SDS011;47201;40.428;-8.436;2022-12-01T01:51:45;1.13;;;1.05;;
61317;SDS011;47201;40.428;-8.436;2022-12-01T01:53:49;2.05;;;1.02;;
61317;SDS011;47201;40.428;-8.436;2022-12-01T01:55:55;1.20;;;1.20;;
61317;SDS011;47201;40.428;-8.436;2022-12-01T01:57:55;1.45;;;1.35;;
61317;SDS011;47201;40.428;-8.436;2022-12-01T01:59:58;2.20;;;1.58;;
61317;SDS011;47201;40.428;-8.436;2022-12-01T02:02:12;3.40;;;1.63;;
61317;SDS011;47201;40.428;-8.436;2022-12-01T02:04:14;2.67;;;1.48;;
61317;SDS011;47201;40.428;-8.436;2022-12-01T02:06:15;1.27;;;1.13;;
61317;SDS011;47201;40.428;-8.436;2022-12-01T02:08:16;2.10;;;1.25;;
61317;SDS011;47201;40.428;-8.436;2022-12-01T02:10:17;1.85;;;1.10;;
61317;SDS011;47201;40.428;-8.436;2022-12-01T02:26:25;1.38;;;1.27;;
61317;SDS011;47201;40.428;-8.436;2022-12-01T02:30:55;3.17;;;1.23;;
61317;SDS011;47201;40.428;-8.436;2022-12-01T02:33:22;0.90;;;0.90;;
61317;SDS011;47201;40.428;-8.436;2022-12-01T02:40:19;2.40;;;1.75;;
61317;SDS011;47201;40.428;-8.436;2022-12-01T02:42:32;3.20;;;2.55;;
61317;SDS011;47201;40.428;-8.436;2022-12-01T02:44:50;2.53;;;2.03;;
61317;SDS011;47201;40.428;-8.436;2022-12-01T02:46:55;2.90;;;1.25;;
61317;SDS011;47201;40.428;-8.436;2022-12-01T02:49:01;0.90;;;0.90;;
61317;SDS011;47201;40.428;-8.436;2022-12-01T02:51:11;0.70;;;0.70;;
61317;SDS011;47201;40.428;-8.436;2022-12-01T02:53:19;1.10;;;1.00;;
61317;SDS011;47201;40.428;-8.436;2022-12-01T02:55:20;1.50;;;1.00;;
61317;SDS011;47201;40.428;-8.436;2022-12-01T02:57:21;1.73;;;0.90;;
61317;SDS011;47201;40.428;-8.436;2022-12-01T02:59:22;3.22;;;1.17;;
61317;SDS011;47201;40.428;-8.436;2022-12-01T03:01:31;1.55;;;1.02;;
61317;SDS011;47201;40.428;-8.436;2022-12-01T03:06:37;1.98;;;0.93;;
61317;SDS011;47201;40.428;-8.436;2022-12-01T03:08:47;1.23;;;1.00;;
61317;SDS011;47201;40.428;-8.436;2022-12-01T03:10:56;1.15;;;1.05;;
61317;SDS011;47201;40.428;-8.436;2022-12-01T03:21:19;1.90;;;1.00;;
61317;SDS011;47201;40.428;-8.436;2022-12-01T03:23:26;0.82;;;0.82;;
61317;SDS011;47201;40.428;-8.436;2022-12-01T03:25:29;1.80;;;0.63;;
61317;SDS011;47201;40.428;-8.436;2022-12-01T03:27:32;1.50;;;0.88;;
61317;SDS011;47201;40.428;-8.436;2022-12-01T03:29:41;4.97;;;0.82;;
61317;SDS011;47201;40.428;-8.436;2022-12-01T03:31:49;4.18;;;1.05;;
61317;SDS011;47201;40.428;-8.436;2022-12-01T03:33:55;4.50;;;0.98;;
61317;SDS011;47201;40.428;-8.436;2022-12-01T03:36:06;3.17;;;1.08;;
61317;SDS011;47201;40.428;-8.436;2022-12-01T03:38:16;0.88;;;0.88;;
61317;SDS011;47201;40.428;-8.436;2022-12-01T03:40:23;1.25;;;1.13;;
61317;SDS011;47201;40.428;-8.436;2022-12-01T03:42:27;0.90;;;0.90;;
61317;SDS011;47201;40.428;-8.436;2022-12-01T03:44:35;1.95;;;0.90;;
61317;SDS011;47201;40.428;-8.436;2022-12-01T03:46:44;2.42;;;0.90;;
61317;SDS011;47201;40.428;-8.436;2022-12-01T03:48:49;1.17;;;0.80;;
61317;SDS011;47201;40.428;-8.436;2022-12-01T03:53:23;2.67;;;1.25;;
61317;SDS011;47201;40.428;-8.436;2022-12-01T03:55:30;0.90;;;0.90;;
61317;SDS011;47201;40.428;-8.436;2022-12-01T03:57:40;0.70;;;0.70;;
61317;SDS011;47201;40.428;-8.436;2022-12-01T03:59:44;1.10;;;0.70;;
61317;SDS011;47201;40.428;-8.436;2022-12-01T04:01:47;7.97;;;0.80;;
61317;SDS011;47201;40.428;-8.436;2022-12-01T04:03:51;1.48;;;1.00;;
61317;SDS011;47201;40.428;-8.436;2022-12-01T04:05:52;1.67;;;0.85;;
61317;SDS011;47201;40.428;-8.436;2022-12-01T04:07:53;3.55;;;1.05;;
61317;SDS011;47201;40.428;-8.436;2022-12-01T04:09:54;0.70;;;0.70;;
61317;SDS011;47201;40.428;-8.436;2022-12-01T04:11:54;3.70;;;1.02;;
61317;SDS011;47201;40.428;-8.436;2022-12-01T04:14:14;4.18;;;0.90;;
61317;SDS011;47201;40.428;-8.436;2022-12-01T04:16:15;0.95;;;0.95;;
61317;SDS011;47201;40.428;-8.436;2022-12-01T04:18:15;3.65;;;0.68;;
61317;SDS011;47201;40.428;-8.436;2022-12-01T04:20:17;2.63;;;1.15;;
61317;SDS011;47201;40.428;-8.436;2022-12-01T04:22:17;1.20;;;0.93;;
61317;SDS011;47201;40.428;-8.436;2022-12-01T04:26:20;5.32;;;0.80;;
61317;SDS011;47201;40.428;-8.436;2022-12-01T04:28:21;4.03;;;1.10;;
61317;SDS011;47201;40.428;-8.436;2022-12-01T04:30:21;2.22;;;0.60;;
61317;SDS011;47201;40.428;-8.436;2022-12-01T04:32:22;2.03;;;0.63;;
61317;SDS011;47201;40.428;-8.436;2022-12-01T04:34:23;1.13;;;0.80;;
61317;SDS011;47201;40.428;-8.436;2022-12-01T04:36:24;1.00;;;1.00;;
61317;SDS011;47201;40.428;-8.436;2022-12-01T04:38:25;1.38;;;0.95;;
61317;SDS011;47201;40.428;-8.436;2022-12-01T04:40:27;0.80;;;0.80;;
61317;SDS011;47201;40.428;-8.436;2022-12-01T04:42:27;1.20;;;0.70;;
61317;SDS011;47201;40.428;-8.436;2022-12-01T04:44:29;4.65;;;0.90;;
61317;SDS011;47201;40.428;-8.436;2022-12-01T04:46:29;1.02;;;0.73;;
61317;SDS011;47201;40.428;-8.436;2022-12-01T04:48:30;2.08;;;0.70;;
61317;SDS011;47201;40.428;-8.436;2022-12-01T04:50:31;1.75;;;0.70;;
61317;SDS011;47201;40.428;-8.436;2022-12-01T04:52:35;1.15;;;1.05;;
61317;SDS011;47201;40.428;-8.436;2022-12-01T04:54:36;1.10;;;1.05;;
61317;SDS011;47201;40.428;-8.436;2022-12-01T04:56:37;0.90;;;0.90;;
61317;SDS011;47201;40.428;-8.436;2022-12-01T04:58:37;2.20;;;1.05;;
61317;SDS011;47201;40.428;-8.436;2022-12-01T05:00:38;0.98;;;0.90;;
61317;SDS011;47201;40.428;-8.436;2022-12-01T05:02:39;1.50;;;0.93;;
61317;SDS011;47201;40.428;-8.436;2022-12-01T05:04:42;1.95;;;1.10;;
61317;SDS011;47201;40.428;-8.436;2022-12-01T05:06:45;2.13;;;1.30;;
61317;SDS011;47201;40.428;-8.436;2022-12-01T05:08:46;2.38;;;1.05;;
61317;SDS011;47201;40.428;-8.436;2022-12-01T05:10:47;1.45;;;1.10;;
61317;SDS011;47201;40.428;-8.436;2022-12-01T05:12:47;2.10;;;1.43;;
61317;SDS011;47201;40.428;-8.436;2022-12-01T05:14:52;6.72;;;1.52;;
61317;SDS011;47201;40.428;-8.436;2022-12-01T05:16:52;1.10;;;1.10;;
61317;SDS011;47201;40.428;-8.436;2022-12-01T05:18:58;3.63;;;1.33;;
61317;SDS011;47201;40.428;-8.436;2022-12-01T05:21:22;1.40;;;1.30;;
61317;SDS011;47201;40.428;-8.436;2022-12-01T05:23:23;4.43;;;1.75;;
61317;SDS011;47201;40.428;-8.436;2022-12-01T05:25:25;5.07;;;1.42;;
61317;SDS011;47201;40.428;-8.436;2022-12-01T05:27:26;1.40;;;1.30;;
61317;SDS011;47201;40.428;-8.436;2022-12-01T05:29:26;4.75;;;1.52;;
61317;SDS011;47201;40.428;-8.436;2022-12-01T05:31:27;4.57;;;2.20;;
61317;SDS011;47201;40.428;-8.436;2022-12-01T05:33:29;2.17;;;2.00;;
61317;SDS011;47201;40.428;-8.436;2022-12-01T05:35:31;2.85;;;1.67;;
61317;SDS011;47201;40.428;-8.436;2022-12-01T05:37:33;5.80;;;1.98;;
61317;SDS011;47201;40.428;-8.436;2022-12-01T05:39:33;2.58;;;2.38;;
61317;SDS011;47201;40.428;-8.436;2022-12-01T05:41:34;6.85;;;2.25;;
61317;SDS011;47201;40.428;-8.436;2022-12-01T05:43:35;7.00;;;2.22;;
61317;SDS011;47201;40.428;-8.436;2022-12-01T05:45:35;3.10;;;2.22;;
61317;SDS011;47201;40.428;-8.436;2022-12-01T05:47:36;2.70;;;2.47;;
61317;SDS011;47201;40.428;-8.436;2022-12-01T05:49:37;4.05;;;2.60;;
61317;SDS011;47201;40.428;-8.436;2022-12-01T05:51:37;3.45;;;2.55;;
61317;SDS011;47201;40.428;-8.436;2022-12-01T05:53:38;6.03;;;2.53;;
61317;SDS011;47201;40.428;-8.436;2022-12-01T05:55:39;3.00;;;2.65;;
61317;SDS011;47201;40.428;-8.436;2022-12-01T05:57:40;3.50;;;2.90;;
61317;SDS011;47201;40.428;-8.436;2022-12-01T05:59:40;3.90;;;3.40;;
61317;SDS011;47201;40.428;-8.436;2022-12-01T06:01:41;4.38;;;3.45;;
61317;SDS011;47201;40.428;-8.436;2022-12-01T06:03:42;3.92;;;3.30;;
61317;SDS011;47201;40.428;-8.436;2022-12-01T06:05:42;3.35;;;3.05;;
61317;SDS011;47201;40.428;-8.436;2022-12-01T06:07:43;5.10;;;3.50;;
61317;SDS011;47201;40.428;-8.436;2022-12-01T06:09:44;6.45;;;3.42;;
61317;SDS011;47201;40.428;-8.436;2022-12-01T06:13:46;5.53;;;3.37;;
61317;SDS011;47201;40.428;-8.436;2022-12-01T06:15:54;3.22;;;3.03;;
61317;SDS011;47201;40.428;-8.436;2022-12-01T06:17:59;4.05;;;3.28;;
61317;SDS011;47201;40.428;-8.436;2022-12-01T06:20:00;3.50;;;3.20;;
61317;SDS011;47201;40.428;-8.436;2022-12-01T06:22:01;7.80;;;3.42;;
61317;SDS011;47201;40.428;-8.436;2022-12-01T06:24:01;4.15;;;3.72;;
61317;SDS011;47201;40.428;-8.436;2022-12-01T06:26:02;4.43;;;3.63;;
61317;SDS011;47201;40.428;-8.436;2022-12-01T06:28:04;4.07;;;3.65;;
61317;SDS011;47201;40.428;-8.436;2022-12-01T06:30:04;4.93;;;3.35;;
61317;SDS011;47201;40.428;-8.436;2022-12-01T06:34:06;3.57;;;3.03;;
61317;SDS011;47201;40.428;-8.436;2022-12-01T06:36:07;4.78;;;3.40;;
61317;SDS011;47201;40.428;-8.436;2022-12-01T06:38:09;3.50;;;3.20;;
61317;SDS011;47201;40.428;-8.436;2022-12-01T06:40:10;5.50;;;3.03;;
61317;SDS011;47201;40.428;-8.436;2022-12-01T06:42:11;5.32;;;3.20;;
61317;SDS011;47201;40.428;-8.436;2022-12-01T06:44:12;7.38;;;3.35;;
61317;SDS011;47201;40.428;-8.436;2022-12-01T06:46:12;5.00;;;3.53;;
61317;SDS011;47201;40.428;-8.436;2022-12-01T06:48:13;11.32;;;3.13;;
61317;SDS011;47201;40.428;-8.436;2022-12-01T06:50:14;3.60;;;3.13;;
61317;SDS011;47201;40.428;-8.436;2022-12-01T06:52:15;4.30;;;3.13;;
61317;SDS011;47201;40.428;-8.436;2022-12-01T06:54:15;3.57;;;3.30;;
61317;SDS011;47201;40.428;-8.436;2022-12-01T06:58:17;7.83;;;3.60;;
61317;SDS011;47201;40.428;-8.436;2022-12-01T07:00:18;6.20;;;3.90;;
61317;SDS011;47201;40.428;-8.436;2022-12-01T07:02:19;4.65;;;3.88;;
61317;SDS011;47201;40.428;-8.436;2022-12-01T07:04:20;7.53;;;4.67;;
61317;SDS011;47201;40.428;-8.436;2022-12-01T07:06:20;5.05;;;4.50;;
61317;SDS011;47201;40.428;-8.436;2022-12-01T07:08:21;6.75;;;4.15;;
61317;SDS011;47201;40.428;-8.436;2022-12-01T07:10:22;5.30;;;3.70;;
61317;SDS011;47201;40.428;-8.436;2022-12-01T07:12:22;6.37;;;4.03;;
61317;SDS011;47201;40.428;-8.436;2022-12-01T07:14:24;4.30;;;3.90;;
61317;SDS011;47201;40.428;-8.436;2022-12-01T07:16:30;6.72;;;3.60;;
61317;SDS011;47201;40.428;-8.436;2022-12-01T07:18:31;8.48;;;4.13;;
61317;SDS011;47201;40.428;-8.436;2022-12-01T07:20:33;11.52;;;5.15;;
61317;SDS011;47201;40.428;-8.436;2022-12-01T07:22:34;7.63;;;3.83;;
61317;SDS011;47201;40.428;-8.436;2022-12-01T07:24:35;3.92;;;3.60;;
61317;SDS011;47201;40.428;-8.436;2022-12-01T07:26:36;10.45;;;4.40;;
61317;SDS011;47201;40.428;-8.436;2022-12-01T07:28:37;11.15;;;4.80;;
61317;SDS011;47201;40.428;-8.436;2022-12-01T07:30:37;7.30;;;4.35;;
61317;SDS011;47201;40.428;-8.436;2022-12-01T07:32:38;10.85;;;5.63;;
61317;SDS011;47201;40.428;-8.436;2022-12-01T07:34:39;8.93;;;4.30;;
61317;SDS011;47201;40.428;-8.436;2022-12-01T07:36:40;5.63;;;4.57;;
61317;SDS011;47201;40.428;-8.436;2022-12-01T07:38:40;8.95;;;3.83;;
61317;SDS011;47201;40.428;-8.436;2022-12-01T07:40:41;8.27;;;3.80;;
61317;SDS011;47201;40.428;-8.436;2022-12-01T07:42:42;5.67;;;4.03;;
61317;SDS011;47201;40.428;-8.436;2022-12-01T07:44:43;11.63;;;3.90;;
61317;SDS011;47201;40.428;-8.436;2022-12-01T07:46:43;5.93;;;3.27;;
61317;SDS011;47201;40.428;-8.436;2022-12-01T07:48:44;10.20;;;3.95;;
61317;SDS011;47201;40.428;-8.436;2022-12-01T07:50:45;7.55;;;4.22;;
61317;SDS011;47201;40.428;-8.436;2022-12-01T07:52:49;4.63;;;3.25;;
61317;SDS011;47201;40.428;-8.436;2022-12-01T07:54:50;13.23;;;4.00;;
61317;SDS011;47201;40.428;-8.436;2022-12-01T07:56:51;8.90;;;4.15;;
61317;SDS011;47201;40.428;-8.436;2022-12-01T07:58:53;11.70;;;4.43;;
61317;SDS011;47201;40.428;-8.436;2022-12-01T08:00:54;5.68;;;4.13;;
61317;SDS011;47201;40.428;-8.436;2022-12-01T08:02:54;6.93;;;3.95;;
61317;SDS011;47201;40.428;-8.436;2022-12-01T08:04:55;4.60;;;4.00;;
61317;SDS011;47201;40.428;-8.436;2022-12-01T08:06:56;4.80;;;4.10;;
61317;SDS011;47201;40.428;-8.436;2022-12-01T08:08:56;4.68;;;3.20;;
61317;SDS011;47201;40.428;-8.436;2022-12-01T08:11:01;3.60;;;3.00;;
61317;SDS011;47201;40.428;-8.436;2022-12-01T08:13:04;5.53;;;2.97;;
61317;SDS011;47201;40.428;-8.436;2022-12-01T08:15:05;3.25;;;2.95;;
61317;SDS011;47201;40.428;-8.436;2022-12-01T08:17:06;14.15;;;3.33;;
61317;SDS011;47201;40.428;-8.436;2022-12-01T08:19:08;4.33;;;3.60;;
61317;SDS011;47201;40.428;-8.436;2022-12-01T08:21:11;6.07;;;3.05;;
61317;SDS011;47201;40.428;-8.436;2022-12-01T08:23:14;4.57;;;2.78;;
61317;SDS011;47201;40.428;-8.436;2022-12-01T08:25:14;3.90;;;2.80;;
61317;SDS011;47201;40.428;-8.436;2022-12-01T08:27:15;6.22;;;2.85;;
61317;SDS011;47201;40.428;-8.436;2022-12-01T08:29:16;2.95;;;2.75;;
61317;SDS011;47201;40.428;-8.436;2022-12-01T08:31:21;3.57;;;3.27;;
61317;SDS011;47201;40.428;-8.436;2022-12-01T08:33:27;5.95;;;3.35;;
61317;SDS011;47201;40.428;-8.436;2022-12-01T08:35:28;10.52;;;3.80;;
61317;SDS011;47201;40.428;-8.436;2022-12-01T08:37:28;8.95;;;3.67;;
61317;SDS011;47201;40.428;-8.436;2022-12-01T08:39:29;9.23;;;3.93;;
61317;SDS011;47201;40.428;-8.436;2022-12-01T08:41:30;10.18;;;4.03;;
61317;SDS011;47201;40.428;-8.436;2022-12-01T08:43:30;9.85;;;3.83;;
61317;SDS011;47201;40.428;-8.436;2022-12-01T08:45:31;11.25;;;3.85;;
61317;SDS011;47201;40.428;-8.436;2022-12-01T08:47:32;8.52;;;3.10;;
61317;SDS011;47201;40.428;-8.436;2022-12-01T08:49:33;13.97;;;4.13;;
61317;SDS011;47201;40.428;-8.436;2022-12-01T08:51:33;5.77;;;3.63;;
61317;SDS011;47201;40.428;-8.436;2022-12-01T08:53:36;7.95;;;5.10;;
61317;SDS011;47201;40.428;-8.436;2022-12-01T08:55:39;7.00;;;3.92;;
61317;SDS011;47201;40.428;-8.436;2022-12-01T08:57:39;13.55;;;3.60;;
61317;SDS011;47201;40.428;-8.436;2022-12-01T08:59:40;3.80;;;3.30;;
61317;SDS011;47201;40.428;-8.436;2022-12-01T09:01:43;4.53;;;3.35;;
61317;SDS011;47201;40.428;-8.436;2022-12-01T09:03:53;8.23;;;3.55;;
61317;SDS011;47201;40.428;-8.436;2022-12-01T09:06:17;3.13;;;2.92;;
61317;SDS011;47201;40.428;-8.436;2022-12-01T09:08:21;3.75;;;2.67;;
61317;SDS011;47201;40.428;-8.436;2022-12-01T09:10:31;3.55;;;2.95;;
61317;SDS011;47201;40.428;-8.436;2022-12-01T09:12:31;3.10;;;2.90;;
61317;SDS011;47201;40.428;-8.436;2022-12-01T09:14:34;3.78;;;2.92;;
61317;SDS011;47201;40.428;-8.436;2022-12-01T09:16:37;3.67;;;2.55;;
61317;SDS011;47201;40.428;-8.436;2022-12-01T09:18:38;3.63;;;3.28;;
61317;SDS011;47201;40.428;-8.436;2022-12-01T09:20:39;3.75;;;3.45;;
61317;SDS011;47201;40.428;-8.436;2022-12-01T09:22:39;4.55;;;3.70;;
61317;SDS011;47201;40.428;-8.436;2022-12-01T09:24:40;8.52;;;4.05;;
61317;SDS011;47201;40.428;-8.436;2022-12-01T09:26:41;5.70;;;3.40;;
61317;SDS011;47201;40.428;-8.436;2022-12-01T09:28:41;8.00;;;3.45;;
61317;SDS011;47201;40.428;-8.436;2022-12-01T09:32:43;3.60;;;3.30;;
61317;SDS011;47201;40.428;-8.436;2022-12-01T09:34:44;4.22;;;3.80;;
61317;SDS011;47201;40.428;-8.436;2022-12-01T09:38:46;9.15;;;3.33;;
61317;SDS011;47201;40.428;-8.436;2022-12-01T09:42:47;5.30;;;3.43;;
61317;SDS011;47201;40.428;-8.436;2022-12-01T09:49:24;3.95;;;3.65;;
61317;SDS011;47201;40.428;-8.436;2022-12-01T09:51:34;8.40;;;3.22;;
61317;SDS011;47201;40.428;-8.436;2022-12-01T09:53:36;4.35;;;3.42;;
61317;SDS011;47201;40.428;-8.436;2022-12-01T09:55:38;8.50;;;3.63;;
61317;SDS011;47201;40.428;-8.436;2022-12-01T09:57:38;3.50;;;3.20;;
61317;SDS011;47201;40.428;-8.436;2022-12-01T09:59:40;9.00;;;3.90;;
61317;SDS011;47201;40.428;-8.436;2022-12-01T10:01:43;4.07;;;3.20;;
61317;SDS011;47201;40.428;-8.436;2022-12-01T10:03:46;3.20;;;2.90;;
61317;SDS011;47201;40.428;-8.436;2022-12-01T10:06:12;4.95;;;3.28;;
61317;SDS011;47201;40.428;-8.436;2022-12-01T10:08:22;5.88;;;3.20;;
61317;SDS011;47201;40.428;-8.436;2022-12-01T10:10:38;3.50;;;2.88;;
61317;SDS011;47201;40.428;-8.436;2022-12-01T10:12:49;3.17;;;2.80;;
61317;SDS011;47201;40.428;-8.436;2022-12-01T10:14:49;4.63;;;2.65;;
61317;SDS011;47201;40.428;-8.436;2022-12-01T10:19:04;4.45;;;2.60;;
61317;SDS011;47201;40.428;-8.436;2022-12-01T10:25:45;6.70;;;3.63;;
61317;SDS011;47201;40.428;-8.436;2022-12-01T10:30:23;5.97;;;4.75;;
61317;SDS011;47201;40.428;-8.436;2022-12-01T10:34:54;5.35;;;4.47;;
61317;SDS011;47201;40.428;-8.436;2022-12-01T10:36:55;7.10;;;4.47;;
61317;SDS011;47201;40.428;-8.436;2022-12-01T10:38:57;5.05;;;4.55;;
61317;SDS011;47201;40.428;-8.436;2022-12-01T10:40:58;6.70;;;4.78;;
61317;SDS011;47201;40.428;-8.436;2022-12-01T10:43:01;7.95;;;4.35;;
61317;SDS011;47201;40.428;-8.436;2022-12-01T10:45:03;4.57;;;4.20;;
61317;SDS011;47201;40.428;-8.436;2022-12-01T10:47:23;7.68;;;4.15;;
61317;SDS011;47201;40.428;-8.436;2022-12-01T10:49:34;6.60;;;3.85;;
61317;SDS011;47201;40.428;-8.436;2022-12-01T10:51:48;5.28;;;3.70;;
61317;SDS011;47201;40.428;-8.436;2022-12-01T10:53:57;6.05;;;3.03;;
61317;SDS011;47201;40.428;-8.436;2022-12-01T10:58:12;3.15;;;2.88;;
61317;SDS011;47201;40.428;-8.436;2022-12-01T11:00:32;4.43;;;3.00;;
61317;SDS011;47201;40.428;-8.436;2022-12-01T11:02:36;4.50;;;2.53;;
61317;SDS011;47201;40.428;-8.436;2022-12-01T11:06:56;6.63;;;3.05;;
61317;SDS011;47201;40.428;-8.436;2022-12-01T11:09:01;6.82;;;2.72;;
61317;SDS011;47201;40.428;-8.436;2022-12-01T11:11:05;4.32;;;3.00;;
61317;SDS011;47201;40.428;-8.436;2022-12-01T11:13:12;5.10;;;3.08;;
61317;SDS011;47201;40.428;-8.436;2022-12-01T11:15:26;3.88;;;2.80;;
61317;SDS011;47201;40.428;-8.436;2022-12-01T11:17:39;6.05;;;2.47;;
61317;SDS011;47201;40.428;-8.436;2022-12-01T11:19:41;8.00;;;3.03;;
61317;SDS011;47201;40.428;-8.436;2022-12-01T11:23:48;4.22;;;2.58;;
61317;SDS011;47201;40.428;-8.436;2022-12-01T11:28:21;3.20;;;2.30;;
61317;SDS011;47201;40.428;-8.436;2022-12-01T11:32:25;22.92;;;4.18;;
61317;SDS011;47201;40.428;-8.436;2022-12-01T11:34:29;10.63;;;2.88;;
61317;SDS011;47201;40.428;-8.436;2022-12-01T11:36:42;24.08;;;3.70;;
61317;SDS011;47201;40.428;-8.436;2022-12-01T11:38:45;15.07;;;3.40;;
61317;SDS011;47201;40.428;-8.436;2022-12-01T11:40:48;6.10;;;3.30;;
61317;SDS011;47201;40.428;-8.436;2022-12-01T11:42:58;4.00;;;2.97;;
61317;SDS011;47201;40.428;-8.436;2022-12-01T11:47:22;5.22;;;3.25;;
61317;SDS011;47201;40.428;-8.436;2022-12-01T11:49:27;5.07;;;3.40;;
61317;SDS011;47201;40.428;-8.436;2022-12-01T11:53:32;10.52;;;3.60;;
61317;SDS011;47201;40.428;-8.436;2022-12-01T11:55:35;4.32;;;3.75;;
61317;SDS011;47201;40.428;-8.436;2022-12-01T11:57:36;4.80;;;4.05;;
61317;SDS011;47201;40.428;-8.436;2022-12-01T11:59:42;6.65;;;3.92;;
61317;SDS011;47201;40.428;-8.436;2022-12-01T12:04:37;6.28;;;3.85;;
61317;SDS011;47201;40.428;-8.436;2022-12-01T12:06:38;3.67;;;3.33;;
61317;SDS011;47201;40.428;-8.436;2022-12-01T12:08:51;7.57;;;4.22;;
61317;SDS011;47201;40.428;-8.436;2022-12-01T12:18:17;6.88;;;4.95;;
61317;SDS011;47201;40.428;-8.436;2022-12-01T12:25:01;15.85;;;6.93;;
61317;SDS011;47201;40.428;-8.436;2022-12-01T12:27:51;13.07;;;6.78;;
61317;SDS011;47201;40.428;-8.436;2022-12-01T12:34:53;8.00;;;6.53;;
61317;SDS011;47201;40.428;-8.436;2022-12-01T12:41:49;7.28;;;5.82;;
61317;SDS011;47201;40.428;-8.436;2022-12-01T12:43:59;6.45;;;5.85;;
61317;SDS011;47201;40.428;-8.436;2022-12-01T12:46:11;7.65;;;5.82;;
61317;SDS011;47201;40.428;-8.436;2022-12-01T12:48:22;8.93;;;6.00;;
61317;SDS011;47201;40.428;-8.436;2022-12-01T12:53:14;8.38;;;7.10;;
61317;SDS011;47201;40.428;-8.436;2022-12-01T12:57:39;8.93;;;7.53;;
61317;SDS011;47201;40.428;-8.436;2022-12-01T12:59:48;9.07;;;7.50;;
61317;SDS011;47201;40.428;-8.436;2022-12-01T13:04:17;9.98;;;8.25;;
61317;SDS011;47201;40.428;-8.436;2022-12-01T13:06:24;8.52;;;7.22;;
61317;SDS011;47201;40.428;-8.436;2022-12-01T13:11:09;19.92;;;7.47;;
61317;SDS011;47201;40.428;-8.436;2022-12-01T13:15:53;9.90;;;8.25;;
61317;SDS011;47201;40.428;-8.436;2022-12-01T13:18:01;9.43;;;7.90;;
61317;SDS011;47201;40.428;-8.436;2022-12-01T13:20:13;15.98;;;7.72;;
61317;SDS011;47201;40.428;-8.436;2022-12-01T13:22:18;8.77;;;7.65;;
61317;SDS011;47201;40.428;-8.436;2022-12-01T13:24:23;9.35;;;7.93;;
61317;SDS011;47201;40.428;-8.436;2022-12-01T13:26:27;7.88;;;7.03;;
61317;SDS011;47201;40.428;-8.436;2022-12-01T13:28:32;11.80;;;6.80;;
61317;SDS011;47201;40.428;-8.436;2022-12-01T13:30:37;7.82;;;6.30;;
61317;SDS011;47201;40.428;-8.436;2022-12-01T13:32:39;10.82;;;6.47;;
61317;SDS011;47201;40.428;-8.436;2022-12-01T13:38:57;7.03;;;6.32;;
61317;SDS011;47201;40.428;-8.436;2022-12-01T13:43:19;9.38;;;6.60;;
61317;SDS011;47201;40.428;-8.436;2022-12-01T13:45:20;8.75;;;6.43;;
61317;SDS011;47201;40.428;-8.436;2022-12-01T13:49:41;15.00;;;6.18;;
61317;SDS011;47201;40.428;-8.436;2022-12-01T13:52:15;8.48;;;5.57;;
61317;SDS011;47201;40.428;-8.436;2022-12-01T13:54:27;7.25;;;5.40;;
61317;SDS011;47201;40.428;-8.436;2022-12-01T13:56:43;7.35;;;6.25;;
61317;SDS011;47201;40.428;-8.436;2022-12-01T13:58:49;5.85;;;5.30;;
61317;SDS011;47201;40.428;-8.436;2022-12-01T14:00:52;6.85;;;5.45;;
61317;SDS011;47201;40.428;-8.436;2022-12-01T14:07:52;6.95;;;5.60;;
61317;SDS011;47201;40.428;-8.436;2022-12-01T14:09:57;8.32;;;5.20;;
61317;SDS011;47201;40.428;-8.436;2022-12-01T14:12:21;6.72;;;4.93;;
61317;SDS011;47201;40.428;-8.436;2022-12-01T14:14:26;7.18;;;5.20;;
61317;SDS011;47201;40.428;-8.436;2022-12-01T14:16:45;6.28;;;5.13;;
61317;SDS011;47201;40.428;-8.436;2022-12-01T14:18:50;6.47;;;5.13;;
61317;SDS011;47201;40.428;-8.436;2022-12-01T14:20:54;4.90;;;4.50;;
61317;SDS011;47201;40.428;-8.436;2022-12-01T14:23:02;7.50;;;5.47;;
61317;SDS011;47201;40.428;-8.436;2022-12-01T14:27:32;8.13;;;5.03;;
61317;SDS011;47201;40.428;-8.436;2022-12-01T14:29:41;7.63;;;5.07;;
61317;SDS011;47201;40.428;-8.436;2022-12-01T14:35:52;5.82;;;5.05;;
61317;SDS011;47201;40.428;-8.436;2022-12-01T14:37:56;8.38;;;5.40;;
61317;SDS011;47201;40.428;-8.436;2022-12-01T14:40:05;6.78;;;4.97;;
61317;SDS011;47201;40.428;-8.436;2022-12-01T14:44:56;5.55;;;4.70;;